Sunday, December 16, 2018, 4:14 PM GMT
Back to Local

CWQP, Point Petre , Ont.

Location: , , Canada Lat: 43.833
Local Time: 4:14 PM GMT (16:14 GMT) Lon: -77.15
Time Zone: GMT Elev: 259 ft

Show me the last for .
Show Coded

Time T Td Feel RH Dir Speed Gust Alt SLP Vis Weather Sky Remarks
2018-12-16 16:00 37 31 29 80 60° 12 - - 30.04 0 None
2018-12-16 15:00 36 32 27 86 40° 14 - - 30.07 0 None
2018-12-16 14:00 34 31 25 91 50° 12 - - 30.09 0 None
2018-12-16 13:00 34 31 26 91 70° 10 - - 30.10 0 None
2018-12-16 12:00 31 30 20 96 60° 12 17 - 30.09 0 None
2018-12-16 11:00 33 33 24 100 50° 13 - - 30.11 0 None
2018-12-16 10:00 34 32 25 91 50° 13 - - 30.12 0 None
2018-12-16 09:00 34 32 25 92 50° 13 - - 30.13 0 None
2018-12-16 08:00 34 31 25 91 50° 13 - - 30.15 0 None
2018-12-16 07:00 31 31 22 97 50° 13 - - 30.16 0 None
2018-12-16 06:00 32 30 23 94 50° 10 - - 30.19 0 None
2018-12-16 05:00 32 30 24 93 50° 9 - - 30.21 0 None
2018-12-16 04:00 31 29 23 92 30° 9 - - 30.26 0 None
2018-12-16 03:00 32 30 24 91 40° 9 - - 30.25 0 None
2018-12-16 02:00 32 28 25 86 40° 8 - - 30.25 0 None
2018-12-16 01:00 33 29 26 84 30° 8 - - 30.25 0 None
2018-12-16 00:00 33 30 25 87 20° 9 - - 30.25 0 None
2018-12-15 23:00 34 33 28 94 10° 7 - - 30.25 0 None
2018-12-15 22:00 34 31 29 88 50° 5 - - 30.23 0 None
2018-12-15 21:00 37 32 32 80 60° 6 - - 30.22 0 None
2018-12-15 20:00 39 32 31 76 60° 13 - - 30.22 0 Peak wind: 19 mph (17 kts) from 60° at 49 min
2018-12-15 19:00 39 35 32 84 70° 10 - - 30.23 0 None
2018-12-15 18:00 40 33 33 76 70° 12 - - 30.22 0 None
2018-12-15 17:00 40 32 34 71 50° 10 - - 30.22 0 None

Support USWX by starting your Amazon purchase here.